sensor_id;sensor_type;location;lat;lon;timestamp;P1;durP1;ratioP1;P2;durP2;ratioP2
17310;SDS011;8773;43.300;0.394;2022-08-03T00:00:30;2.17;;;2.17;;
17310;SDS011;8773;43.300;0.394;2022-08-03T00:02:58;2.40;;;2.40;;
17310;SDS011;8773;43.300;0.394;2022-08-03T00:05:27;2.25;;;2.15;;
17310;SDS011;8773;43.300;0.394;2022-08-03T00:07:54;2.05;;;1.95;;
17310;SDS011;8773;43.300;0.394;2022-08-03T00:10:24;2.42;;;2.33;;
17310;SDS011;8773;43.300;0.394;2022-08-03T00:12:52;2.10;;;2.10;;
17310;SDS011;8773;43.300;0.394;2022-08-03T00:15:20;2.10;;;2.00;;
17310;SDS011;8773;43.300;0.394;2022-08-03T00:17:48;2.05;;;2.05;;
17310;SDS011;8773;43.300;0.394;2022-08-03T00:20:18;2.17;;;2.17;;
17310;SDS011;8773;43.300;0.394;2022-08-03T00:22:46;2.22;;;2.20;;
17310;SDS011;8773;43.300;0.394;2022-08-03T00:25:14;2.33;;;2.22;;
17310;SDS011;8773;43.300;0.394;2022-08-03T00:27:44;2.45;;;2.38;;
17310;SDS011;8773;43.300;0.394;2022-08-03T00:30:15;2.60;;;2.50;;
17310;SDS011;8773;43.300;0.394;2022-08-03T00:32:43;2.30;;;2.20;;
17310;SDS011;8773;43.300;0.394;2022-08-03T00:35:11;2.35;;;2.35;;
17310;SDS011;8773;43.300;0.394;2022-08-03T00:37:59;2.30;;;2.30;;
17310;SDS011;8773;43.300;0.394;2022-08-03T00:40:28;2.10;;;2.10;;
17310;SDS011;8773;43.300;0.394;2022-08-03T00:42:58;2.13;;;2.10;;
17310;SDS011;8773;43.300;0.394;2022-08-03T00:45:28;2.42;;;2.33;;
17310;SDS011;8773;43.300;0.394;2022-08-03T00:47:58;2.13;;;2.13;;
17310;SDS011;8773;43.300;0.394;2022-08-03T00:50:28;2.20;;;2.20;;
17310;SDS011;8773;43.300;0.394;2022-08-03T00:52:58;2.30;;;2.30;;
17310;SDS011;8773;43.300;0.394;2022-08-03T00:55:26;2.17;;;2.17;;
17310;SDS011;8773;43.300;0.394;2022-08-03T00:57:54;2.28;;;2.28;;
17310;SDS011;8773;43.300;0.394;2022-08-03T01:00:26;2.13;;;2.13;;
17310;SDS011;8773;43.300;0.394;2022-08-03T01:02:54;2.30;;;2.30;;
17310;SDS011;8773;43.300;0.394;2022-08-03T01:05:22;2.30;;;2.20;;
17310;SDS011;8773;43.300;0.394;2022-08-03T01:07:56;2.33;;;2.22;;
17310;SDS011;8773;43.300;0.394;2022-08-03T01:10:31;3.22;;;3.13;;
17310;SDS011;8773;43.300;0.394;2022-08-03T01:13:12;3.60;;;3.40;;
17310;SDS011;8773;43.300;0.394;2022-08-03T01:16:16;3.50;;;3.30;;
17310;SDS011;8773;43.300;0.394;2022-08-03T01:19:01;3.67;;;3.47;;
17310;SDS011;8773;43.300;0.394;2022-08-03T01:21:42;3.78;;;3.58;;
17310;SDS011;8773;43.300;0.394;2022-08-03T01:24:22;3.95;;;3.53;;
17310;SDS011;8773;43.300;0.394;2022-08-03T01:27:06;3.85;;;3.65;;
17310;SDS011;8773;43.300;0.394;2022-08-03T01:32:28;4.28;;;3.97;;
17310;SDS011;8773;43.300;0.394;2022-08-03T01:35:25;4.05;;;3.80;;
17310;SDS011;8773;43.300;0.394;2022-08-03T01:37:56;4.53;;;4.20;;
17310;SDS011;8773;43.300;0.394;2022-08-03T01:40:27;4.47;;;4.28;;
17310;SDS011;8773;43.300;0.394;2022-08-03T01:42:59;4.28;;;4.07;;
17310;SDS011;8773;43.300;0.394;2022-08-03T01:45:31;4.55;;;4.22;;
17310;SDS011;8773;43.300;0.394;2022-08-03T01:48:00;4.22;;;4.03;;
17310;SDS011;8773;43.300;0.394;2022-08-03T01:50:29;4.55;;;4.28;;
17310;SDS011;8773;43.300;0.394;2022-08-03T01:52:59;4.75;;;4.43;;
17310;SDS011;8773;43.300;0.394;2022-08-03T01:55:28;4.10;;;3.90;;
17310;SDS011;8773;43.300;0.394;2022-08-03T01:57:59;4.03;;;3.75;;
17310;SDS011;8773;43.300;0.394;2022-08-03T02:00:33;4.60;;;4.30;;
17310;SDS011;8773;43.300;0.394;2022-08-03T02:03:03;4.65;;;4.45;;
17310;SDS011;8773;43.300;0.394;2022-08-03T02:05:33;4.45;;;4.25;;
17310;SDS011;8773;43.300;0.394;2022-08-03T02:08:03;4.60;;;4.28;;
17310;SDS011;8773;43.300;0.394;2022-08-03T02:10:34;5.22;;;4.88;;
17310;SDS011;8773;43.300;0.394;2022-08-03T02:13:04;4.55;;;4.20;;
17310;SDS011;8773;43.300;0.394;2022-08-03T02:15:37;4.70;;;4.40;;
17310;SDS011;8773;43.300;0.394;2022-08-03T02:18:06;5.03;;;4.70;;
17310;SDS011;8773;43.300;0.394;2022-08-03T02:20:36;5.00;;;4.70;;
17310;SDS011;8773;43.300;0.394;2022-08-03T02:23:05;4.93;;;4.63;;
17310;SDS011;8773;43.300;0.394;2022-08-03T02:25:34;4.80;;;4.40;;
17310;SDS011;8773;43.300;0.394;2022-08-03T02:28:09;4.65;;;4.30;;
17310;SDS011;8773;43.300;0.394;2022-08-03T02:30:43;5.03;;;4.47;;
17310;SDS011;8773;43.300;0.394;2022-08-03T02:33:20;4.15;;;3.85;;
17310;SDS011;8773;43.300;0.394;2022-08-03T02:35:53;5.28;;;4.65;;
17310;SDS011;8773;43.300;0.394;2022-08-03T02:38:27;4.80;;;4.45;;
17310;SDS011;8773;43.300;0.394;2022-08-03T02:40:58;4.90;;;4.60;;
17310;SDS011;8773;43.300;0.394;2022-08-03T02:43:29;4.97;;;4.78;;
17310;SDS011;8773;43.300;0.394;2022-08-03T02:46:21;4.57;;;4.18;;
17310;SDS011;8773;43.300;0.394;2022-08-03T02:48:55;4.47;;;4.28;;
17310;SDS011;8773;43.300;0.394;2022-08-03T02:51:45;4.88;;;4.57;;
17310;SDS011;8773;43.300;0.394;2022-08-03T02:54:17;4.72;;;4.47;;
17310;SDS011;8773;43.300;0.394;2022-08-03T02:56:46;5.13;;;4.75;;
17310;SDS011;8773;43.300;0.394;2022-08-03T02:59:15;4.47;;;4.28;;
17310;SDS011;8773;43.300;0.394;2022-08-03T03:01:46;6.07;;;5.07;;
17310;SDS011;8773;43.300;0.394;2022-08-03T03:04:15;5.07;;;4.70;;
17310;SDS011;8773;43.300;0.394;2022-08-03T03:06:46;4.80;;;4.40;;
17310;SDS011;8773;43.300;0.394;2022-08-03T03:09:17;4.40;;;3.97;;
17310;SDS011;8773;43.300;0.394;2022-08-03T03:11:46;4.85;;;4.55;;
17310;SDS011;8773;43.300;0.394;2022-08-03T03:14:17;4.35;;;4.15;;
17310;SDS011;8773;43.300;0.394;2022-08-03T03:17:01;4.40;;;4.10;;
17310;SDS011;8773;43.300;0.394;2022-08-03T03:19:31;4.88;;;4.68;;
17310;SDS011;8773;43.300;0.394;2022-08-03T03:22:02;4.60;;;4.40;;
17310;SDS011;8773;43.300;0.394;2022-08-03T03:24:33;5.18;;;4.68;;
17310;SDS011;8773;43.300;0.394;2022-08-03T03:27:02;4.15;;;3.95;;
17310;SDS011;8773;43.300;0.394;2022-08-03T03:29:31;4.75;;;4.53;;
17310;SDS011;8773;43.300;0.394;2022-08-03T03:32:06;4.47;;;4.28;;
17310;SDS011;8773;43.300;0.394;2022-08-03T03:34:35;4.65;;;4.35;;
17310;SDS011;8773;43.300;0.394;2022-08-03T04:15:16;5.00;;;4.70;;
17310;SDS011;8773;43.300;0.394;2022-08-03T04:48:23;5.45;;;5.10;;
17310;SDS011;8773;43.300;0.394;2022-08-03T04:50:51;4.97;;;4.68;;
17310;SDS011;8773;43.300;0.394;2022-08-03T04:53:21;5.32;;;5.03;;
17310;SDS011;8773;43.300;0.394;2022-08-03T04:55:50;5.60;;;5.20;;
17310;SDS011;8773;43.300;0.394;2022-08-03T04:58:18;5.00;;;4.80;;
17310;SDS011;8773;43.300;0.394;2022-08-03T05:00:46;5.90;;;4.82;;
17310;SDS011;8773;43.300;0.394;2022-08-03T05:03:16;4.97;;;4.68;;
17310;SDS011;8773;43.300;0.394;2022-08-03T05:05:50;5.65;;;5.13;;
17310;SDS011;8773;43.300;0.394;2022-08-03T05:08:27;5.57;;;5.10;;
17310;SDS011;8773;43.300;0.394;2022-08-03T05:10:58;5.55;;;5.25;;
17310;SDS011;8773;43.300;0.394;2022-08-03T05:53:49;8.32;;;7.13;;
17310;SDS011;8773;43.300;0.394;2022-08-03T05:56:36;13.10;;;8.15;;
17310;SDS011;8773;43.300;0.394;2022-08-03T05:59:24;6.80;;;6.30;;
17310;SDS011;8773;43.300;0.394;2022-08-03T06:02:23;7.55;;;6.40;;
17310;SDS011;8773;43.300;0.394;2022-08-03T07:58:03;8.00;;;7.40;;
17310;SDS011;8773;43.300;0.394;2022-08-03T08:00:33;9.50;;;8.70;;
17310;SDS011;8773;43.300;0.394;2022-08-03T08:03:01;8.25;;;7.65;;
17310;SDS011;8773;43.300;0.394;2022-08-03T08:05:29;9.63;;;8.73;;
17310;SDS011;8773;43.300;0.394;2022-08-03T08:07:58;7.63;;;6.95;;
17310;SDS011;8773;43.300;0.394;2022-08-03T08:10:26;7.72;;;7.20;;
17310;SDS011;8773;43.300;0.394;2022-08-03T08:12:55;7.68;;;6.95;;
17310;SDS011;8773;43.300;0.394;2022-08-03T08:15:45;9.55;;;7.72;;
17310;SDS011;8773;43.300;0.394;2022-08-03T08:18:13;8.00;;;7.40;;
17310;SDS011;8773;43.300;0.394;2022-08-03T08:21:04;8.80;;;7.47;;
17310;SDS011;8773;43.300;0.394;2022-08-03T08:23:36;9.65;;;7.07;;
17310;SDS011;8773;43.300;0.394;2022-08-03T08:26:08;7.70;;;7.05;;
17310;SDS011;8773;43.300;0.394;2022-08-03T08:28:39;7.25;;;6.75;;
17310;SDS011;8773;43.300;0.394;2022-08-03T08:31:09;7.63;;;7.18;;
17310;SDS011;8773;43.300;0.394;2022-08-03T08:33:40;8.52;;;7.90;;
17310;SDS011;8773;43.300;0.394;2022-08-03T08:36:28;8.85;;;8.07;;
17310;SDS011;8773;43.300;0.394;2022-08-03T08:38:58;8.57;;;7.97;;
17310;SDS011;8773;43.300;0.394;2022-08-03T08:41:27;8.38;;;7.68;;
17310;SDS011;8773;43.300;0.394;2022-08-03T08:43:59;10.48;;;9.48;;
17310;SDS011;8773;43.300;0.394;2022-08-03T08:46:31;7.93;;;7.43;;
17310;SDS011;8773;43.300;0.394;2022-08-03T08:49:00;10.40;;;9.25;;
17310;SDS011;8773;43.300;0.394;2022-08-03T08:51:30;7.53;;;6.97;;
17310;SDS011;8773;43.300;0.394;2022-08-03T08:54:41;10.07;;;8.20;;
17310;SDS011;8773;43.300;0.394;2022-08-03T08:57:40;9.32;;;8.23;;
17310;SDS011;8773;43.300;0.394;2022-08-03T09:00:30;8.70;;;7.85;;
17310;SDS011;8773;43.300;0.394;2022-08-03T09:03:18;10.15;;;9.25;;
17310;SDS011;8773;43.300;0.394;2022-08-03T09:06:27;7.68;;;7.10;;
17310;SDS011;8773;43.300;0.394;2022-08-03T09:09:09;9.75;;;8.85;;
17310;SDS011;8773;43.300;0.394;2022-08-03T09:12:29;9.93;;;8.90;;
17310;SDS011;8773;43.300;0.394;2022-08-03T09:15:26;9.52;;;8.57;;
17310;SDS011;8773;43.300;0.394;2022-08-03T09:18:22;9.50;;;8.68;;
17310;SDS011;8773;43.300;0.394;2022-08-03T09:21:18;9.25;;;8.32;;
17310;SDS011;8773;43.300;0.394;2022-08-03T09:24:02;9.48;;;8.52;;
17310;SDS011;8773;43.300;0.394;2022-08-03T09:27:05;8.73;;;7.85;;
17310;SDS011;8773;43.300;0.394;2022-08-03T09:29:47;7.60;;;7.00;;
17310;SDS011;8773;43.300;0.394;2022-08-03T09:32:34;7.20;;;6.50;;
17310;SDS011;8773;43.300;0.394;2022-08-03T09:35:26;6.97;;;6.38;;
17310;SDS011;8773;43.300;0.394;2022-08-03T09:38:41;6.43;;;5.93;;
17310;SDS011;8773;43.300;0.394;2022-08-03T09:41:25;7.07;;;6.57;;
17310;SDS011;8773;43.300;0.394;2022-08-03T09:44:12;7.32;;;6.57;;
17310;SDS011;8773;43.300;0.394;2022-08-03T09:47:13;7.97;;;6.90;;
17310;SDS011;8773;43.300;0.394;2022-08-03T09:50:10;26.85;;;9.90;;
17310;SDS011;8773;43.300;0.394;2022-08-03T09:53:05;7.30;;;6.65;;
17310;SDS011;8773;43.300;0.394;2022-08-03T09:55:59;7.25;;;6.53;;
17310;SDS011;8773;43.300;0.394;2022-08-03T09:59:07;6.72;;;6.13;;
17310;SDS011;8773;43.300;0.394;2022-08-03T10:01:55;6.88;;;6.22;;
17310;SDS011;8773;43.300;0.394;2022-08-03T10:04:45;8.10;;;7.25;;
17310;SDS011;8773;43.300;0.394;2022-08-03T10:07:17;7.15;;;6.55;;
17310;SDS011;8773;43.300;0.394;2022-08-03T10:10:20;7.72;;;7.03;;
17310;SDS011;8773;43.300;0.394;2022-08-03T10:13:16;6.65;;;6.15;;
17310;SDS011;8773;43.300;0.394;2022-08-03T10:16:04;7.03;;;6.35;;
17310;SDS011;8773;43.300;0.394;2022-08-03T10:19:09;6.93;;;6.50;;
17310;SDS011;8773;43.300;0.394;2022-08-03T10:21:55;7.20;;;6.60;;
17310;SDS011;8773;43.300;0.394;2022-08-03T10:24:58;7.32;;;6.68;;
17310;SDS011;8773;43.300;0.394;2022-08-03T10:27:49;7.32;;;6.78;;
17310;SDS011;8773;43.300;0.394;2022-08-03T10:30:38;6.90;;;6.40;;
17310;SDS011;8773;43.300;0.394;2022-08-03T10:33:31;6.93;;;6.35;;
17310;SDS011;8773;43.300;0.394;2022-08-03T10:36:41;6.60;;;6.00;;
17310;SDS011;8773;43.300;0.394;2022-08-03T10:39:13;6.70;;;6.30;;
17310;SDS011;8773;43.300;0.394;2022-08-03T10:42:04;8.23;;;6.53;;
17310;SDS011;8773;43.300;0.394;2022-08-03T10:45:04;6.38;;;5.82;;
17310;SDS011;8773;43.300;0.394;2022-08-03T10:48:11;8.98;;;6.20;;
17310;SDS011;8773;43.300;0.394;2022-08-03T10:51:12;6.25;;;5.30;;
17310;SDS011;8773;43.300;0.394;2022-08-03T10:53:59;6.20;;;5.60;;
17310;SDS011;8773;43.300;0.394;2022-08-03T10:56:46;6.00;;;5.60;;
17310;SDS011;8773;43.300;0.394;2022-08-03T11:00:09;5.82;;;5.20;;
17310;SDS011;8773;43.300;0.394;2022-08-03T11:03:09;6.63;;;6.10;;
17310;SDS011;8773;43.300;0.394;2022-08-03T11:05:42;6.95;;;6.32;;
17310;SDS011;8773;43.300;0.394;2022-08-03T11:08:25;6.72;;;5.90;;
17310;SDS011;8773;43.300;0.394;2022-08-03T11:10:55;5.68;;;5.25;;
17310;SDS011;8773;43.300;0.394;2022-08-03T11:13:25;6.07;;;5.55;;
17310;SDS011;8773;43.300;0.394;2022-08-03T11:15:59;6.43;;;5.82;;
17310;SDS011;8773;43.300;0.394;2022-08-03T11:18:33;6.45;;;5.32;;
17310;SDS011;8773;43.300;0.394;2022-08-03T11:21:02;5.35;;;5.05;;
17310;SDS011;8773;43.300;0.394;2022-08-03T11:23:40;5.20;;;4.80;;
17310;SDS011;8773;43.300;0.394;2022-08-03T11:26:30;5.97;;;5.35;;
17310;SDS011;8773;43.300;0.394;2022-08-03T11:31:56;5.53;;;4.95;;
17310;SDS011;8773;43.300;0.394;2022-08-03T11:34:24;5.55;;;5.05;;
17310;SDS011;8773;43.300;0.394;2022-08-03T11:39:50;5.53;;;5.22;;
17310;SDS011;8773;43.300;0.394;2022-08-03T11:42:39;6.32;;;4.93;;
17310;SDS011;8773;43.300;0.394;2022-08-03T11:45:13;5.47;;;4.97;;
17310;SDS011;8773;43.300;0.394;2022-08-03T11:47:43;4.97;;;4.68;;
17310;SDS011;8773;43.300;0.394;2022-08-03T11:50:16;5.10;;;4.63;;
17310;SDS011;8773;43.300;0.394;2022-08-03T11:52:45;4.90;;;4.70;;
17310;SDS011;8773;43.300;0.394;2022-08-03T11:55:16;4.95;;;4.65;;
17310;SDS011;8773;43.300;0.394;2022-08-03T11:57:47;4.30;;;4.00;;
17310;SDS011;8773;43.300;0.394;2022-08-03T12:00:36;4.85;;;4.40;;
17310;SDS011;8773;43.300;0.394;2022-08-03T12:03:08;4.53;;;4.13;;
17310;SDS011;8773;43.300;0.394;2022-08-03T12:05:40;4.30;;;4.10;;
17310;SDS011;8773;43.300;0.394;2022-08-03T12:08:20;4.43;;;4.03;;
17310;SDS011;8773;43.300;0.394;2022-08-03T12:11:03;4.60;;;4.35;;
17310;SDS011;8773;43.300;0.394;2022-08-03T12:13:39;4.93;;;4.50;;
17310;SDS011;8773;43.300;0.394;2022-08-03T12:16:31;5.20;;;4.18;;
17310;SDS011;8773;43.300;0.394;2022-08-03T12:19:01;5.88;;;4.50;;
17310;SDS011;8773;43.300;0.394;2022-08-03T12:21:30;5.00;;;4.60;;
17310;SDS011;8773;43.300;0.394;2022-08-03T12:23:59;4.40;;;4.20;;
17310;SDS011;8773;43.300;0.394;2022-08-03T12:26:28;5.65;;;4.38;;
17310;SDS011;8773;43.300;0.394;2022-08-03T12:28:57;5.15;;;4.70;;
17310;SDS011;8773;43.300;0.394;2022-08-03T12:31:25;5.10;;;4.60;;
17310;SDS011;8773;43.300;0.394;2022-08-03T12:33:54;4.35;;;4.13;;
17310;SDS011;8773;43.300;0.394;2022-08-03T12:36:26;4.57;;;4.28;;
17310;SDS011;8773;43.300;0.394;2022-08-03T12:38:56;4.22;;;4.03;;
17310;SDS011;8773;43.300;0.394;2022-08-03T12:41:26;4.43;;;4.22;;
17310;SDS011;8773;43.300;0.394;2022-08-03T12:43:56;3.80;;;3.58;;
17310;SDS011;8773;43.300;0.394;2022-08-03T12:46:28;5.10;;;4.25;;
17310;SDS011;8773;43.300;0.394;2022-08-03T12:49:02;3.83;;;3.53;;
17310;SDS011;8773;43.300;0.394;2022-08-03T12:51:37;3.70;;;3.40;;
17310;SDS011;8773;43.300;0.394;2022-08-03T12:54:23;3.50;;;3.30;;
17310;SDS011;8773;43.300;0.394;2022-08-03T12:56:57;3.40;;;3.30;;
17310;SDS011;8773;43.300;0.394;2022-08-03T12:59:26;3.72;;;3.42;;
17310;SDS011;8773;43.300;0.394;2022-08-03T13:02:01;3.70;;;3.38;;
17310;SDS011;8773;43.300;0.394;2022-08-03T13:04:35;3.47;;;3.20;;
17310;SDS011;8773;43.300;0.394;2022-08-03T13:07:05;3.28;;;3.08;;
17310;SDS011;8773;43.300;0.394;2022-08-03T13:09:40;3.92;;;3.63;;
17310;SDS011;8773;43.300;0.394;2022-08-03T13:12:11;3.90;;;3.40;;
17310;SDS011;8773;43.300;0.394;2022-08-03T13:14:40;3.60;;;3.30;;
17310;SDS011;8773;43.300;0.394;2022-08-03T13:17:09;4.40;;;3.30;;
17310;SDS011;8773;43.300;0.394;2022-08-03T13:19:38;4.10;;;3.30;;
17310;SDS011;8773;43.300;0.394;2022-08-03T13:22:11;2.97;;;2.80;;
17310;SDS011;8773;43.300;0.394;2022-08-03T13:24:41;4.53;;;3.38;;
17310;SDS011;8773;43.300;0.394;2022-08-03T13:27:10;3.50;;;3.30;;
17310;SDS011;8773;43.300;0.394;2022-08-03T13:30:01;3.40;;;3.25;;
17310;SDS011;8773;43.300;0.394;2022-08-03T13:32:29;3.40;;;3.20;;
17310;SDS011;8773;43.300;0.394;2022-08-03T13:34:57;3.33;;;3.10;;
17310;SDS011;8773;43.300;0.394;2022-08-03T13:37:27;3.58;;;3.38;;
17310;SDS011;8773;43.300;0.394;2022-08-03T13:39:55;3.63;;;3.33;;
17310;SDS011;8773;43.300;0.394;2022-08-03T13:42:34;3.65;;;3.35;;
17310;SDS011;8773;43.300;0.394;2022-08-03T13:45:04;3.97;;;3.50;;
17310;SDS011;8773;43.300;0.394;2022-08-03T13:47:34;3.80;;;3.60;;
17310;SDS011;8773;43.300;0.394;2022-08-03T13:50:03;3.60;;;3.40;;
17310;SDS011;8773;43.300;0.394;2022-08-03T13:52:33;3.78;;;3.30;;
17310;SDS011;8773;43.300;0.394;2022-08-03T13:55:03;3.35;;;3.03;;
17310;SDS011;8773;43.300;0.394;2022-08-03T13:57:33;3.50;;;3.30;;
17310;SDS011;8773;43.300;0.394;2022-08-03T14:00:42;3.50;;;3.30;;
17310;SDS011;8773;43.300;0.394;2022-08-03T14:03:10;3.53;;;3.40;;
17310;SDS011;8773;43.300;0.394;2022-08-03T14:05:40;3.20;;;2.95;;
17310;SDS011;8773;43.300;0.394;2022-08-03T14:08:10;4.03;;;3.30;;
17310;SDS011;8773;43.300;0.394;2022-08-03T14:10:39;3.38;;;3.08;;
17310;SDS011;8773;43.300;0.394;2022-08-03T14:13:09;3.78;;;3.40;;
17310;SDS011;8773;43.300;0.394;2022-08-03T14:15:43;3.30;;;3.00;;
17310;SDS011;8773;43.300;0.394;2022-08-03T14:18:15;3.22;;;3.00;;
17310;SDS011;8773;43.300;0.394;2022-08-03T14:20:59;3.13;;;2.90;;
17310;SDS011;8773;43.300;0.394;2022-08-03T14:23:34;3.42;;;3.05;;
17310;SDS011;8773;43.300;0.394;2022-08-03T14:26:03;3.53;;;3.22;;
17310;SDS011;8773;43.300;0.394;2022-08-03T14:28:32;3.35;;;3.25;;
17310;SDS011;8773;43.300;0.394;2022-08-03T14:31:02;4.38;;;3.38;;
17310;SDS011;8773;43.300;0.394;2022-08-03T14:33:40;3.40;;;3.28;;
17310;SDS011;8773;43.300;0.394;2022-08-03T14:36:08;3.30;;;3.20;;
17310;SDS011;8773;43.300;0.394;2022-08-03T14:38:38;3.20;;;3.10;;
17310;SDS011;8773;43.300;0.394;2022-08-03T14:41:06;3.45;;;3.20;;
17310;SDS011;8773;43.300;0.394;2022-08-03T14:43:45;3.17;;;3.00;;
17310;SDS011;8773;43.300;0.394;2022-08-03T14:46:27;3.50;;;3.30;;
17310;SDS011;8773;43.300;0.394;2022-08-03T14:48:58;3.55;;;3.25;;
17310;SDS011;8773;43.300;0.394;2022-08-03T14:51:47;3.10;;;2.95;;
17310;SDS011;8773;43.300;0.394;2022-08-03T14:54:20;3.03;;;2.90;;
17310;SDS011;8773;43.300;0.394;2022-08-03T14:56:49;3.50;;;3.30;;
17310;SDS011;8773;43.300;0.394;2022-08-03T14:59:17;3.70;;;3.50;;
17310;SDS011;8773;43.300;0.394;2022-08-03T15:01:45;3.30;;;3.10;;
17310;SDS011;8773;43.300;0.394;2022-08-03T15:04:31;3.40;;;3.10;;
17310;SDS011;8773;43.300;0.394;2022-08-03T15:07:00;3.30;;;3.10;;
17310;SDS011;8773;43.300;0.394;2022-08-03T15:09:29;3.70;;;3.40;;
17310;SDS011;8773;43.300;0.394;2022-08-03T15:11:57;3.60;;;3.33;;
17310;SDS011;8773;43.300;0.394;2022-08-03T15:14:26;3.42;;;3.33;;
17310;SDS011;8773;43.300;0.394;2022-08-03T15:17:00;3.17;;;3.08;;
17310;SDS011;8773;43.300;0.394;2022-08-03T15:19:28;3.20;;;3.00;;
17310;SDS011;8773;43.300;0.394;2022-08-03T15:22:18;2.97;;;2.80;;
17310;SDS011;8773;43.300;0.394;2022-08-03T15:24:52;3.03;;;2.83;;
17310;SDS011;8773;43.300;0.394;2022-08-03T15:27:21;2.80;;;2.60;;
17310;SDS011;8773;43.300;0.394;2022-08-03T15:29:49;3.10;;;2.80;;
17310;SDS011;8773;43.300;0.394;2022-08-03T15:32:34;3.08;;;2.83;;
17310;SDS011;8773;43.300;0.394;2022-08-03T15:35:03;2.97;;;2.88;;
17310;SDS011;8773;43.300;0.394;2022-08-03T15:37:31;3.10;;;2.80;;
17310;SDS011;8773;43.300;0.394;2022-08-03T15:40:00;4.40;;;2.83;;
17310;SDS011;8773;43.300;0.394;2022-08-03T15:42:29;2.75;;;2.55;;
17310;SDS011;8773;43.300;0.394;2022-08-03T15:44:57;3.13;;;2.92;;
17310;SDS011;8773;43.300;0.394;2022-08-03T15:47:26;2.55;;;2.45;;
17310;SDS011;8773;43.300;0.394;2022-08-03T15:49:54;2.83;;;2.53;;
17310;SDS011;8773;43.300;0.394;2022-08-03T15:52:22;3.00;;;2.83;;
17310;SDS011;8773;43.300;0.394;2022-08-03T15:54:50;2.42;;;2.30;;
17310;SDS011;8773;43.300;0.394;2022-08-03T15:57:19;2.40;;;2.30;;
17310;SDS011;8773;43.300;0.394;2022-08-03T15:59:48;2.60;;;2.40;;
17310;SDS011;8773;43.300;0.394;2022-08-03T16:02:17;2.65;;;2.45;;
17310;SDS011;8773;43.300;0.394;2022-08-03T16:04:45;3.03;;;2.70;;
17310;SDS011;8773;43.300;0.394;2022-08-03T16:07:13;2.80;;;2.60;;
17310;SDS011;8773;43.300;0.394;2022-08-03T16:10:02;2.72;;;2.50;;
17310;SDS011;8773;43.300;0.394;2022-08-03T16:12:32;3.58;;;2.42;;
17310;SDS011;8773;43.300;0.394;2022-08-03T16:15:03;2.83;;;2.63;;
17310;SDS011;8773;43.300;0.394;2022-08-03T16:17:33;2.58;;;2.38;;
17310;SDS011;8773;43.300;0.394;2022-08-03T16:20:01;3.17;;;2.47;;
17310;SDS011;8773;43.300;0.394;2022-08-03T16:22:49;2.55;;;2.35;;
17310;SDS011;8773;43.300;0.394;2022-08-03T16:25:17;2.50;;;2.40;;
17310;SDS011;8773;43.300;0.394;2022-08-03T16:27:47;2.88;;;2.55;;
17310;SDS011;8773;43.300;0.394;2022-08-03T16:30:32;2.42;;;2.33;;
17310;SDS011;8773;43.300;0.394;2022-08-03T16:33:00;2.70;;;2.50;;
17310;SDS011;8773;43.300;0.394;2022-08-03T16:35:29;2.45;;;2.33;;
17310;SDS011;8773;43.300;0.394;2022-08-03T16:37:57;2.58;;;2.47;;
17310;SDS011;8773;43.300;0.394;2022-08-03T16:40:25;3.00;;;2.80;;
17310;SDS011;8773;43.300;0.394;2022-08-03T16:42:55;2.70;;;2.50;;
17310;SDS011;8773;43.300;0.394;2022-08-03T16:45:23;3.00;;;2.80;;
17310;SDS011;8773;43.300;0.394;2022-08-03T16:47:51;3.03;;;2.83;;
17310;SDS011;8773;43.300;0.394;2022-08-03T16:50:31;5.05;;;2.80;;
17310;SDS011;8773;43.300;0.394;2022-08-03T16:52:59;3.53;;;3.22;;
17310;SDS011;8773;43.300;0.394;2022-08-03T16:55:28;3.50;;;3.20;;
17310;SDS011;8773;43.300;0.394;2022-08-03T16:58:18;2.95;;;2.75;;
17310;SDS011;8773;43.300;0.394;2022-08-03T17:01:07;3.53;;;3.35;;
17310;SDS011;8773;43.300;0.394;2022-08-03T17:03:48;4.72;;;3.05;;
17310;SDS011;8773;43.300;0.394;2022-08-03T17:06:28;4.22;;;2.80;;
17310;SDS011;8773;43.300;0.394;2022-08-03T17:09:00;3.92;;;2.97;;
17310;SDS011;8773;43.300;0.394;2022-08-03T17:11:34;2.70;;;2.60;;
17310;SDS011;8773;43.300;0.394;2022-08-03T17:14:10;3.28;;;2.95;;
17310;SDS011;8773;43.300;0.394;2022-08-03T17:16:40;3.35;;;3.10;;
17310;SDS011;8773;43.300;0.394;2022-08-03T17:19:19;3.58;;;3.00;;
17310;SDS011;8773;43.300;0.394;2022-08-03T17:21:50;2.72;;;2.63;;
17310;SDS011;8773;43.300;0.394;2022-08-03T17:24:30;3.17;;;2.88;;
17310;SDS011;8773;43.300;0.394;2022-08-03T17:27:02;3.83;;;3.25;;
17310;SDS011;8773;43.300;0.394;2022-08-03T17:29:37;3.05;;;2.85;;
17310;SDS011;8773;43.300;0.394;2022-08-03T17:32:10;3.00;;;2.60;;
17310;SDS011;8773;43.300;0.394;2022-08-03T17:34:46;3.67;;;3.22;;
17310;SDS011;8773;43.300;0.394;2022-08-03T17:37:15;3.22;;;2.97;;
17310;SDS011;8773;43.300;0.394;2022-08-03T17:40:08;3.28;;;3.10;;
17310;SDS011;8773;43.300;0.394;2022-08-03T17:42:42;3.20;;;3.00;;
17310;SDS011;8773;43.300;0.394;2022-08-03T17:45:17;3.28;;;3.05;;
17310;SDS011;8773;43.300;0.394;2022-08-03T17:47:46;3.42;;;3.13;;
17310;SDS011;8773;43.300;0.394;2022-08-03T17:50:24;3.45;;;3.00;;
17310;SDS011;8773;43.300;0.394;2022-08-03T17:53:03;3.33;;;3.13;;
17310;SDS011;8773;43.300;0.394;2022-08-03T17:55:57;3.33;;;3.13;;
17310;SDS011;8773;43.300;0.394;2022-08-03T17:58:57;3.50;;;3.30;;
17310;SDS011;8773;43.300;0.394;2022-08-03T18:01:38;2.92;;;2.83;;
17310;SDS011;8773;43.300;0.394;2022-08-03T18:04:45;3.22;;;3.03;;
17310;SDS011;8773;43.300;0.394;2022-08-03T18:07:25;3.40;;;3.10;;
17310;SDS011;8773;43.300;0.394;2022-08-03T18:10:07;3.00;;;2.90;;
17310;SDS011;8773;43.300;0.394;2022-08-03T18:12:43;3.10;;;2.90;;
17310;SDS011;8773;43.300;0.394;2022-08-03T18:15:20;3.60;;;3.35;;
17310;SDS011;8773;43.300;0.394;2022-08-03T18:17:53;3.20;;;3.10;;
17310;SDS011;8773;43.300;0.394;2022-08-03T18:20:28;3.05;;;2.85;;
17310;SDS011;8773;43.300;0.394;2022-08-03T18:23:08;3.15;;;2.88;;
17310;SDS011;8773;43.300;0.394;2022-08-03T18:25:58;3.15;;;2.95;;
17310;SDS011;8773;43.300;0.394;2022-08-03T18:28:27;3.67;;;3.20;;
17310;SDS011;8773;43.300;0.394;2022-08-03T18:30:56;2.90;;;2.65;;
17310;SDS011;8773;43.300;0.394;2022-08-03T18:33:25;3.33;;;3.15;;
17310;SDS011;8773;43.300;0.394;2022-08-03T18:36:14;3.00;;;2.80;;
17310;SDS011;8773;43.300;0.394;2022-08-03T18:38:58;3.67;;;3.20;;
17310;SDS011;8773;43.300;0.394;2022-08-03T18:41:46;3.95;;;3.33;;
17310;SDS011;8773;43.300;0.394;2022-08-03T18:44:15;2.95;;;2.75;;
17310;SDS011;8773;43.300;0.394;2022-08-03T18:47:06;9.68;;;3.40;;
17310;SDS011;8773;43.300;0.394;2022-08-03T18:50:02;6.75;;;3.92;;
17310;SDS011;8773;43.300;0.394;2022-08-03T18:52:45;5.68;;;4.10;;
17310;SDS011;8773;43.300;0.394;2022-08-03T18:55:22;4.25;;;3.85;;
17310;SDS011;8773;43.300;0.394;2022-08-03T18:58:04;4.18;;;3.88;;
17310;SDS011;8773;43.300;0.394;2022-08-03T19:00:44;4.85;;;4.40;;
17310;SDS011;8773;43.300;0.394;2022-08-03T19:03:22;4.60;;;4.20;;
17310;SDS011;8773;43.300;0.394;2022-08-03T19:06:11;4.43;;;4.10;;
17310;SDS011;8773;43.300;0.394;2022-08-03T19:08:48;4.43;;;4.03;;
17310;SDS011;8773;43.300;0.394;2022-08-03T19:11:22;5.65;;;4.18;;
17310;SDS011;8773;43.300;0.394;2022-08-03T19:14:16;5.47;;;4.07;;
17310;SDS011;8773;43.300;0.394;2022-08-03T19:17:24;5.63;;;3.97;;
17310;SDS011;8773;43.300;0.394;2022-08-03T19:19:54;4.88;;;3.78;;
17310;SDS011;8773;43.300;0.394;2022-08-03T19:22:28;5.75;;;3.72;;
17310;SDS011;8773;43.300;0.394;2022-08-03T19:24:58;5.85;;;3.70;;
17310;SDS011;8773;43.300;0.394;2022-08-03T19:27:28;4.82;;;4.25;;
17310;SDS011;8773;43.300;0.394;2022-08-03T19:29:58;5.53;;;3.70;;
17310;SDS011;8773;43.300;0.394;2022-08-03T19:32:33;8.43;;;4.07;;
17310;SDS011;8773;43.300;0.394;2022-08-03T19:35:04;4.30;;;3.90;;
17310;SDS011;8773;43.300;0.394;2022-08-03T19:37:56;6.40;;;4.30;;
17310;SDS011;8773;43.300;0.394;2022-08-03T19:40:26;4.47;;;3.75;;
17310;SDS011;8773;43.300;0.394;2022-08-03T19:43:02;4.80;;;4.40;;
17310;SDS011;8773;43.300;0.394;2022-08-03T19:45:43;6.43;;;4.13;;
17310;SDS011;8773;43.300;0.394;2022-08-03T19:48:32;5.65;;;4.05;;